Time;durP1;ratioP1;P1;durP2;ratioP2;P2;SDS_P1;SDS_P2;PMS_P1;PMS_P2;Temp;Humidity;BMP_temperature;BMP_pressure;BME280_temperature;BME280_humidity;BME280_pressure;Samples;Min_cycle;Max_cycle;Signal;HPM_P1;HPM_P2
2022/10/12 00:00:44;;;;;;;;;;;25.00;97.10;;;;;;4192950;28;19932;-70
2022/10/12 00:02:48;;;;;;;;;;;25.00;97.10;;;;;;4192704;28;19924;-70
2022/10/12 00:04:53;;;;;;;;;;;25.00;97.00;;;;;;4173945;28;19936;-70
2022/10/12 00:06:57;;;;;;;;;;;24.90;96.50;;;;;;4190698;28;19966;-71
2022/10/12 00:09:01;;;;;;;;;;;24.90;96.50;;;;;;4191676;28;19932;-71
2022/10/12 00:11:05;;;;;;;;;;;24.60;97.00;;;;;;4192224;28;19940;-70
2022/10/12 00:13:13;;;;;;;;;;;24.70;97.00;;;;;;4190196;28;19939;-71
2022/10/12 00:15:17;;;;;;;;;;;24.80;96.90;;;;;;4192735;28;19929;-70
2022/10/12 00:17:21;;;;;;;;;;;24.80;97.00;;;;;;4176976;28;19995;-70
2022/10/12 00:19:29;;;;;;;;;;;24.90;96.90;;;;;;4195541;28;20011;-70
2022/10/12 00:21:32;;;;;;;;;;;24.90;96.90;;;;;;4193180;28;19935;-70
2022/10/12 00:23:37;;;;;;;;;;;25.00;96.90;;;;;;4177949;28;20477;-70
2022/10/12 00:25:43;;;;;;;;;;;25.00;96.80;;;;;;4177543;28;19928;-70
2022/10/12 00:27:47;;;;;;;;;;;24.90;96.90;;;;;;4195742;28;21481;-69
2022/10/12 00:29:51;;;;;;;;;;;25.00;97.00;;;;;;4178366;28;19925;-68
2022/10/12 00:31:57;;;;;;;;;;;25.00;96.90;;;;;;4195263;28;20359;-70
2022/10/12 00:34:02;;;;;;;;;;;24.90;97.30;;;;;;4198376;28;19930;-69
2022/10/12 00:36:11;;;;;;;;;;;24.90;97.30;;;;;;4195589;28;19928;-72
2022/10/12 00:38:19;;;;;;;;;;;25.00;96.80;;;;;;4175876;28;20162;-70
2022/10/12 00:40:23;;;;;;;;;;;24.90;97.00;;;;;;4177365;28;19929;-70
2022/10/12 00:42:27;;;;;;;;;;;25.00;96.90;;;;;;4194599;28;19932;-68
2022/10/12 00:44:37;;;;;;;;;;;25.10;96.60;;;;;;4178307;28;20518;-69
2022/10/12 00:46:41;;;;;;;;;;;25.10;96.80;;;;;;4194013;28;19935;-70
2022/10/12 00:48:53;;;;;;;;;;;25.20;97.00;;;;;;4192417;28;19932;-71
2022/10/12 00:51:01;;;;;;;;;;;25.30;96.80;;;;;;4187821;28;19931;-70
2022/10/12 00:53:10;;;;;;;;;;;25.50;96.60;;;;;;4194015;28;19932;-70
2022/10/12 00:55:14;;;;;;;;;;;25.50;96.50;;;;;;4178579;28;19924;-70
2022/10/12 00:57:22;;;;;;;;;;;25.50;96.20;;;;;;4176822;28;20070;-70
2022/10/12 00:59:46;;;;;;;;;;;25.60;95.70;;;;;;4176970;28;19978;-70
2022/10/12 01:01:50;;;;;;;;;;;25.60;95.20;;;;;;4191276;28;19960;-70
2022/10/12 01:03:57;;;;;;;;;;;25.70;95.50;;;;;;4171701;28;19936;-69
2022/10/12 01:06:02;;;;;;;;;;;25.80;95.70;;;;;;4195241;28;19928;-70
2022/10/12 01:08:07;;;;;;;;;;;25.80;95.70;;;;;;4194892;28;19929;-71
2022/10/12 01:10:15;;;;;;;;;;;25.90;95.60;;;;;;4195092;28;19928;-70
2022/10/12 01:12:20;;;;;;;;;;;25.90;95.60;;;;;;4184203;28;19925;-71
2022/10/12 01:14:24;;;;;;;;;;;25.90;95.60;;;;;;4184015;28;19928;-70
2022/10/12 01:16:33;;;;;;;;;;;26.00;95.00;;;;;;4194447;28;19928;-70
2022/10/12 01:18:44;;;;;;;;;;;25.90;94.80;;;;;;4193424;28;19925;-70
2022/10/12 01:20:48;;;;;;;;;;;25.80;94.70;;;;;;4193742;28;19924;-70
2022/10/12 01:22:54;;;;;;;;;;;25.90;94.60;;;;;;4196777;28;19930;-69
2022/10/12 01:25:09;;;;;;;;;;;25.90;94.80;;;;;;4194605;28;20566;-69
2022/10/12 01:27:26;;;;;;;;;;;26.00;94.80;;;;;;4159342;28;19940;-71
2022/10/12 01:29:38;;;;;;;;;;;26.10;94.70;;;;;;4196318;28;20375;-71
2022/10/12 01:31:55;;;;;;;;;;;26.20;94.60;;;;;;4195169;28;19939;-69
2022/10/12 01:34:01;;;;;;;;;;;26.20;94.80;;;;;;4191323;28;20027;-70
2022/10/12 01:36:18;;;;;;;;;;;26.40;94.80;;;;;;4193474;28;20008;-70
2022/10/12 01:38:25;;;;;;;;;;;26.30;94.90;;;;;;4193203;28;19924;-70
2022/10/12 01:40:39;;;;;;;;;;;26.30;94.50;;;;;;4176708;28;19929;-70
2022/10/12 01:42:43;;;;;;;;;;;26.40;94.70;;;;;;4175830;28;20411;-71
2022/10/12 01:44:48;;;;;;;;;;;26.40;94.60;;;;;;4194959;28;19928;-71
2022/10/12 01:46:53;;;;;;;;;;;26.50;94.50;;;;;;4194444;28;19959;-71
2022/10/12 01:49:01;;;;;;;;;;;26.40;94.10;;;;;;4177332;28;19929;-71
2022/10/12 01:51:05;;;;;;;;;;;26.40;94.20;;;;;;4193308;28;20442;-71
2022/10/12 01:53:29;;;;;;;;;;;26.50;94.20;;;;;;4193201;28;20745;-70
2022/10/12 01:55:49;;;;;;;;;;;26.60;94.00;;;;;;4193854;28;19928;-70
2022/10/12 01:57:58;;;;;;;;;;;26.60;94.10;;;;;;4190287;28;19962;-70
2022/10/12 02:00:12;;;;;;;;;;;26.70;94.30;;;;;;4193110;28;19925;-70
2022/10/12 02:02:24;;;;;;;;;;;26.70;93.80;;;;;;4188802;28;19929;-69
2022/10/12 02:04:28;;;;;;;;;;;26.70;93.70;;;;;;4193292;28;19928;-71
2022/10/12 02:06:37;;;;;;;;;;;26.70;94.10;;;;;;4192655;28;19932;-70
2022/10/12 02:08:42;;;;;;;;;;;26.90;94.00;;;;;;4194415;28;19929;-71
2022/10/12 02:10:47;;;;;;;;;;;26.90;93.90;;;;;;4173843;28;20093;-72
2022/10/12 02:12:52;;;;;;;;;;;27.00;93.90;;;;;;4177419;28;19925;-71
2022/10/12 02:14:59;;;;;;;;;;;27.00;93.60;;;;;;4177218;28;20461;-70
2022/10/12 02:17:04;;;;;;;;;;;27.00;93.70;;;;;;4175563;28;19978;-70
2022/10/12 02:19:08;;;;;;;;;;;27.10;93.70;;;;;;4194282;28;19929;-70
2022/10/12 02:21:17;;;;;;;;;;;27.10;93.50;;;;;;4176507;28;19925;-70
2022/10/12 02:23:21;;;;;;;;;;;27.10;93.50;;;;;;4176586;28;20415;-70
2022/10/12 02:25:26;;;;;;;;;;;27.20;93.30;;;;;;4193414;28;20023;-70
2022/10/12 02:27:30;;;;;;;;;;;27.30;93.10;;;;;;4195052;28;20621;-70
2022/10/12 02:29:36;;;;;;;;;;;27.30;93.40;;;;;;4174142;28;19925;-70
2022/10/12 02:31:52;;;;;;;;;;;27.30;93.40;;;;;;4176206;28;19925;-68
2022/10/12 02:34:05;;;;;;;;;;;27.30;93.30;;;;;;4155486;28;19929;-69
2022/10/12 02:36:11;;;;;;;;;;;27.30;93.00;;;;;;4174769;28;19943;-70
2022/10/12 02:38:34;;;;;;;;;;;27.40;93.30;;;;;;4192383;28;19928;-71
2022/10/12 02:40:59;;;;;;;;;;;27.50;93.20;;;;;;4190718;28;19982;-70
2022/10/12 02:43:15;;;;;;;;;;;27.50;92.80;;;;;;4192544;28;19928;-69
2022/10/12 02:45:19;;;;;;;;;;;27.60;92.90;;;;;;4193467;28;19928;-71
2022/10/12 02:47:26;;;;;;;;;;;27.50;93.30;;;;;;4122309;28;19944;-70
2022/10/12 02:49:30;;;;;;;;;;;27.60;93.50;;;;;;4183706;28;19928;-70
2022/10/12 02:51:34;;;;;;;;;;;27.60;93.40;;;;;;4190077;28;19924;-71
2022/10/12 02:53:44;;;;;;;;;;;27.70;93.30;;;;;;4193256;28;20007;-73
2022/10/12 02:55:51;;;;;;;;;;;27.70;92.80;;;;;;4192766;28;19935;-70
2022/10/12 02:57:54;;;;;;;;;;;27.60;92.20;;;;;;4159611;28;19929;-70
2022/10/12 03:00:04;;;;;;;;;;;27.60;92.20;;;;;;4193595;28;20352;-70
2022/10/12 03:02:09;;;;;;;;;;;27.60;91.90;;;;;;4193299;28;20476;-71
2022/10/12 03:04:14;;;;;;;;;;;27.50;92.30;;;;;;4175437;28;20314;-70
2022/10/12 03:06:20;;;;;;;;;;;27.60;92.50;;;;;;4193147;28;19989;-71
2022/10/12 03:08:24;;;;;;;;;;;27.60;92.50;;;;;;4192223;28;19963;-71
2022/10/12 03:10:28;;;;;;;;;;;27.60;92.50;;;;;;4192658;28;19932;-71
2022/10/12 03:12:32;;;;;;;;;;;27.60;92.70;;;;;;4193366;28;19928;-70
2022/10/12 03:14:36;;;;;;;;;;;27.70;92.40;;;;;;4191073;28;20260;-70
2022/10/12 03:16:41;;;;;;;;;;;27.70;92.20;;;;;;4192119;28;19931;-70
2022/10/12 03:18:47;;;;;;;;;;;27.70;92.20;;;;;;4193260;28;19939;-71
2022/10/12 03:20:51;;;;;;;;;;;27.70;92.10;;;;;;4193189;28;20276;-72
2022/10/12 03:22:55;;;;;;;;;;;27.70;92.10;;;;;;4191890;28;20307;-69
2022/10/12 03:25:03;;;;;;;;;;;27.70;92.20;;;;;;4175371;28;20395;-70
2022/10/12 03:27:08;;;;;;;;;;;27.90;92.40;;;;;;4192544;28;19947;-70
2022/10/12 03:29:12;;;;;;;;;;;28.00;92.70;;;;;;4193365;28;19932;-70
2022/10/12 03:31:20;;;;;;;;;;;28.00;92.50;;;;;;4190444;28;19934;-70
2022/10/12 03:33:24;;;;;;;;;;;28.00;92.30;;;;;;4191947;28;20007;-71
2022/10/12 03:35:28;;;;;;;;;;;28.00;92.50;;;;;;4192977;28;20279;-69
2022/10/12 03:37:37;;;;;;;;;;;27.80;92.50;;;;;;4190393;28;19960;-70
2022/10/12 03:39:41;;;;;;;;;;;27.70;92.80;;;;;;4191035;28;19935;-71
2022/10/12 03:41:46;;;;;;;;;;;27.70;92.70;;;;;;4192790;28;19994;-71
2022/10/12 03:43:54;;;;;;;;;;;27.70;93.10;;;;;;4193388;28;19947;-70
2022/10/12 03:45:58;;;;;;;;;;;27.80;93.50;;;;;;4192892;28;19933;-69
2022/10/12 03:48:02;;;;;;;;;;;28.00;93.20;;;;;;4192966;28;19936;-70
2022/10/12 03:50:11;;;;;;;;;;;28.10;92.80;;;;;;4192992;28;19925;-70
2022/10/12 03:52:15;;;;;;;;;;;28.10;92.70;;;;;;4176909;28;20429;-71
2022/10/12 03:54:20;;;;;;;;;;;28.00;92.90;;;;;;4193438;28;19928;-71
2022/10/12 03:56:29;;;;;;;;;;;27.80;93.40;;;;;;4196070;28;19925;-71
2022/10/12 03:58:33;;;;;;;;;;;28.00;93.10;;;;;;4196936;28;19924;-70
2022/10/12 04:00:37;;;;;;;;;;;28.10;93.10;;;;;;4196041;28;19980;-70
2022/10/12 04:02:43;;;;;;;;;;;28.10;92.50;;;;;;4194079;28;19935;-70
2022/10/12 04:04:47;;;;;;;;;;;28.00;92.50;;;;;;4178761;28;19978;-70
2022/10/12 04:06:52;;;;;;;;;;;27.80;93.00;;;;;;4196836;28;19931;-70
2022/10/12 04:09:10;;;;;;;;;;;27.90;93.10;;;;;;4184947;28;20023;-70
2022/10/12 04:11:15;;;;;;;;;;;28.20;93.10;;;;;;4176116;28;20354;-69
2022/10/12 04:13:19;;;;;;;;;;;28.20;92.50;;;;;;4193653;28;20489;-71
2022/10/12 04:15:26;;;;;;;;;;;27.80;92.20;;;;;;4178045;28;19929;-70
2022/10/12 04:17:30;;;;;;;;;;;27.90;92.30;;;;;;4196246;28;19929;-70
2022/10/12 04:19:33;;;;;;;;;;;28.00;92.30;;;;;;4164028;28;20427;-71
2022/10/12 04:21:41;;;;;;;;;;;28.20;93.00;;;;;;4178829;28;20438;-71
2022/10/12 04:23:45;;;;;;;;;;;28.20;91.90;;;;;;4195535;28;20591;-72
2022/10/12 04:25:49;;;;;;;;;;;28.40;92.20;;;;;;4194685;28;20352;-70
2022/10/12 04:27:57;;;;;;;;;;;28.50;92.00;;;;;;4195983;28;20710;-71
2022/10/12 04:30:01;;;;;;;;;;;28.70;91.50;;;;;;4178190;28;19973;-70
2022/10/12 04:32:05;;;;;;;;;;;28.50;90.90;;;;;;4178114;28;19925;-71
2022/10/12 04:34:16;;;;;;;;;;;28.60;91.00;;;;;;4196148;28;19932;-70
2022/10/12 04:36:20;;;;;;;;;;;28.60;91.30;;;;;;4191922;28;19967;-70
2022/10/12 04:38:24;;;;;;;;;;;28.60;90.70;;;;;;4194141;28;20350;-71
2022/10/12 04:40:28;;;;;;;;;;;28.30;90.50;;;;;;4177826;28;19935;-70
2022/10/12 04:42:32;;;;;;;;;;;28.50;90.80;;;;;;4195981;28;19925;-69
2022/10/12 04:44:37;;;;;;;;;;;28.60;90.70;;;;;;4195554;28;20038;-71
2022/10/12 04:46:45;;;;;;;;;;;28.70;90.30;;;;;;4195781;28;20390;-72
2022/10/12 04:48:49;;;;;;;;;;;28.80;90.80;;;;;;4195318;28;19935;-70
2022/10/12 04:50:53;;;;;;;;;;;28.90;90.30;;;;;;4195229;28;19924;-71
2022/10/12 04:52:59;;;;;;;;;;;28.90;90.10;;;;;;4177666;28;19929;-68
2022/10/12 04:55:06;;;;;;;;;;;29.00;89.90;;;;;;4195362;28;19992;-70
2022/10/12 04:57:12;;;;;;;;;;;29.00;90.00;;;;;;4169322;28;19938;-71
2022/10/12 04:59:17;;;;;;;;;;;29.10;89.80;;;;;;4165585;28;19954;-71
2022/10/12 05:01:20;;;;;;;;;;;29.10;90.10;;;;;;4188273;28;19928;-69
2022/10/12 05:03:25;;;;;;;;;;;29.20;89.90;;;;;;4187374;28;19947;-73
2022/10/12 05:05:29;;;;;;;;;;;29.20;90.10;;;;;;4192198;28;20027;-71
2022/10/12 05:07:33;;;;;;;;;;;29.20;88.70;;;;;;4189817;28;20373;-70
2022/10/12 05:09:43;;;;;;;;;;;29.00;89.60;;;;;;4176221;28;19928;-71
2022/10/12 05:11:47;;;;;;;;;;;29.10;90.10;;;;;;4187684;28;19943;-70
2022/10/12 05:13:51;;;;;;;;;;;29.10;89.10;;;;;;4186086;28;19977;-72
2022/10/12 05:15:56;;;;;;;;;;;29.00;87.90;;;;;;4169209;28;19952;-71
2022/10/12 05:18:01;;;;;;;;;;;28.90;88.50;;;;;;4169778;28;19941;-71
2022/10/12 05:20:06;;;;;;;;;;;29.00;90.40;;;;;;4191653;28;19932;-69
2022/10/12 05:22:11;;;;;;;;;;;29.00;88.70;;;;;;4192218;28;19970;-70
2022/10/12 05:24:17;;;;;;;;;;;29.10;89.60;;;;;;4191520;28;20650;-70
2022/10/12 05:26:21;;;;;;;;;;;29.20;89.90;;;;;;4189178;28;20015;-69
2022/10/12 05:28:25;;;;;;;;;;;29.30;90.00;;;;;;4187829;28;19928;-71
2022/10/12 05:30:30;;;;;;;;;;;29.30;88.10;;;;;;4191485;28;19971;-70
2022/10/12 05:32:34;;;;;;;;;;;29.40;89.20;;;;;;4191190;28;19939;-70
2022/10/12 05:34:41;;;;;;;;;;;29.40;89.90;;;;;;4189567;28;19979;-71
2022/10/12 05:36:49;;;;;;;;;;;29.30;88.90;;;;;;4192152;28;19928;-72
2022/10/12 05:38:53;;;;;;;;;;;29.30;88.70;;;;;;4190663;28;20309;-69
2022/10/12 05:40:57;;;;;;;;;;;29.40;89.40;;;;;;4172928;28;19959;-69
2022/10/12 05:43:03;;;;;;;;;;;29.30;89.50;;;;;;4177796;28;20429;-69
2022/10/12 05:45:07;;;;;;;;;;;29.30;86.80;;;;;;4191275;28;20632;-69
2022/10/12 05:47:11;;;;;;;;;;;29.40;88.50;;;;;;4190934;28;19932;-71
2022/10/12 05:49:16;;;;;;;;;;;29.40;88.40;;;;;;4139867;28;20290;-69
2022/10/12 05:51:21;;;;;;;;;;;29.40;88.80;;;;;;4188961;28;19974;-71
2022/10/12 05:53:30;;;;;;;;;;;29.40;87.50;;;;;;4173279;28;20453;-71
2022/10/12 05:55:36;;;;;;;;;;;29.40;88.80;;;;;;4189520;28;19931;-70
2022/10/12 05:57:40;;;;;;;;;;;29.50;87.00;;;;;;4188394;28;19933;-71
2022/10/12 05:59:44;;;;;;;;;;;29.50;88.30;;;;;;4192735;28;20427;-71
2022/10/12 06:01:50;;;;;;;;;;;29.60;88.00;;;;;;4194728;28;20023;-70
2022/10/12 06:03:54;;;;;;;;;;;29.70;88.00;;;;;;4194682;28;19935;-71
2022/10/12 06:05:59;;;;;;;;;;;29.80;88.90;;;;;;4177038;28;20418;-72
2022/10/12 06:08:07;;;;;;;;;;;29.80;88.50;;;;;;4191866;28;19929;-71
2022/10/12 06:10:11;;;;;;;;;;;29.50;87.70;;;;;;4194543;28;19928;-70
2022/10/12 06:12:15;;;;;;;;;;;29.60;88.00;;;;;;4194942;28;19967;-71
2022/10/12 06:14:21;;;;;;;;;;;29.70;87.90;;;;;;4194267;28;19968;-71
2022/10/12 06:16:25;;;;;;;;;;;29.80;88.00;;;;;;4192355;28;19925;-71
2022/10/12 06:18:29;;;;;;;;;;;29.80;86.50;;;;;;4194547;28;19928;-71
2022/10/12 06:20:36;;;;;;;;;;;29.90;87.80;;;;;;4194398;28;19948;-70
2022/10/12 06:22:40;;;;;;;;;;;29.90;86.70;;;;;;4194795;28;20011;-71
2022/10/12 06:24:44;;;;;;;;;;;29.90;86.60;;;;;;4193807;28;19928;-71
2022/10/12 06:26:52;;;;;;;;;;;30.00;86.50;;;;;;4193755;28;19932;-69
2022/10/12 06:28:56;;;;;;;;;;;30.00;88.00;;;;;;4194635;28;19964;-70
2022/10/12 06:31:00;;;;;;;;;;;30.10;87.20;;;;;;4194381;28;19928;-71
2022/10/12 06:33:09;;;;;;;;;;;30.00;86.20;;;;;;4194174;28;19932;-70
2022/10/12 06:35:12;;;;;;;;;;;29.90;85.10;;;;;;4193727;28;20314;-71
2022/10/12 06:37:16;;;;;;;;;;;29.90;86.20;;;;;;4194614;28;20363;-71
2022/10/12 06:39:44;;;;;;;;;;;30.10;87.40;;;;;;4128509;28;19932;-71
2022/10/12 06:41:49;;;;;;;;;;;30.00;87.00;;;;;;4142472;28;19926;-70
2022/10/12 06:43:54;;;;;;;;;;;30.00;85.60;;;;;;4126781;28;20345;-72
2022/10/12 06:46:02;;;;;;;;;;;30.00;86.00;;;;;;4142054;28;20432;-71
2022/10/12 06:48:06;;;;;;;;;;;30.10;85.90;;;;;;4142730;28;20767;-71
2022/10/12 06:50:10;;;;;;;;;;;30.00;86.00;;;;;;4142271;28;20035;-71
2022/10/12 06:52:19;;;;;;;;;;;29.90;85.70;;;;;;4110959;28;19930;-70
2022/10/12 06:54:23;;;;;;;;;;;29.90;86.40;;;;;;4123019;28;20020;-70
2022/10/12 06:56:30;;;;;;;;;;;29.90;86.50;;;;;;4142309;28;19937;-71
2022/10/12 06:58:36;;;;;;;;;;;29.90;86.40;;;;;;4142252;28;20368;-71
2022/10/12 07:00:41;;;;;;;;;;;29.90;86.00;;;;;;4124594;28;19926;-70
2022/10/12 07:02:47;;;;;;;;;;;29.90;85.70;;;;;;4139179;28;19930;-72
2022/10/12 07:04:55;;;;;;;;;;;29.80;85.20;;;;;;4118170;28;19969;-71
2022/10/12 07:06:59;;;;;;;;;;;29.90;86.10;;;;;;4137064;28;19929;-71
2022/10/12 07:09:03;;;;;;;;;;;30.00;85.80;;;;;;4140003;28;19933;-72
2022/10/12 07:11:10;;;;;;;;;;;30.00;85.70;;;;;;4140350;28;19929;-71
2022/10/12 07:13:15;;;;;;;;;;;30.10;84.80;;;;;;4126077;28;19929;-71
2022/10/12 07:15:19;;;;;;;;;;;30.20;85.10;;;;;;4142214;28;20301;-72
2022/10/12 07:17:30;;;;;;;;;;;30.10;85.30;;;;;;4166102;28;19928;-71
2022/10/12 07:19:34;;;;;;;;;;;30.20;85.30;;;;;;4193509;28;19977;-71
2022/10/12 07:21:38;;;;;;;;;;;30.20;85.10;;;;;;4175423;28;20014;-71
2022/10/12 07:23:44;;;;;;;;;;;30.00;82.80;;;;;;4193391;28;20406;-72
2022/10/12 07:25:51;;;;;;;;;;;30.00;84.60;;;;;;4193047;28;19928;-72
2022/10/12 07:27:55;;;;;;;;;;;30.00;84.70;;;;;;4193189;28;19928;-71
2022/10/12 07:30:03;;;;;;;;;;;30.00;84.50;;;;;;4191029;28;19932;-72
2022/10/12 07:32:07;;;;;;;;;;;30.10;84.50;;;;;;4192091;28;20399;-72
2022/10/12 07:34:11;;;;;;;;;;;30.10;84.30;;;;;;4192955;28;20485;-73
2022/10/12 07:36:17;;;;;;;;;;;30.10;84.00;;;;;;4193425;28;20047;-72
2022/10/12 07:38:24;;;;;;;;;;;30.10;85.20;;;;;;4189720;28;19924;-72
2022/10/12 07:40:28;;;;;;;;;;;30.20;85.40;;;;;;4192916;28;19925;-70
2022/10/12 07:42:36;;;;;;;;;;;30.20;83.80;;;;;;4192289;28;20545;-73
2022/10/12 07:45:00;;;;;;;;;;;30.20;83.60;;;;;;4192612;28;20514;-73
2022/10/12 07:47:06;;;;;;;;;;;30.30;83.60;;;;;;4176362;28;20015;-72
2022/10/12 07:49:12;;;;;;;;;;;30.30;84.00;;;;;;4192290;28;20003;-71
2022/10/12 07:51:16;;;;;;;;;;;30.20;84.00;;;;;;4175499;28;19928;-72
2022/10/12 07:53:20;;;;;;;;;;;30.10;83.00;;;;;;4193206;28;19935;-72
2022/10/12 07:55:26;;;;;;;;;;;30.20;84.10;;;;;;4193539;28;20011;-73
2022/10/12 07:57:32;;;;;;;;;;;30.30;84.10;;;;;;4191686;28;19935;-72
2022/10/12 07:59:36;;;;;;;;;;;30.30;83.40;;;;;;4193635;28;19935;-72
2022/10/12 08:01:44;;;;;;;;;;;30.30;83.50;;;;;;4193644;28;20375;-72
2022/10/12 08:03:47;;;;;;;;;;;30.30;84.60;;;;;;4191609;28;20018;-71
2022/10/12 08:05:52;;;;;;;;;;;30.30;84.70;;;;;;4193385;28;19935;-71
2022/10/12 08:07:59;;;;;;;;;;;30.30;83.60;;;;;;4186078;28;20767;-71
2022/10/12 08:10:05;;;;;;;;;;;30.30;82.80;;;;;;4190448;28;20397;-72
2022/10/12 08:12:10;;;;;;;;;;;30.20;82.60;;;;;;4176047;28;20015;-71
2022/10/12 08:14:16;;;;;;;;;;;30.20;83.30;;;;;;4193423;28;20538;-71
2022/10/12 08:16:20;;;;;;;;;;;30.30;84.40;;;;;;4193684;28;19932;-71
2022/10/12 08:18:24;;;;;;;;;;;30.20;83.80;;;;;;4177503;28;19953;-71
2022/10/12 08:20:29;;;;;;;;;;;30.20;83.40;;;;;;4190850;28;19928;-72
2022/10/12 08:22:33;;;;;;;;;;;30.20;83.70;;;;;;4193863;28;20043;-71
2022/10/12 08:24:37;;;;;;;;;;;30.30;83.80;;;;;;4193551;28;19978;-71
2022/10/12 08:26:44;;;;;;;;;;;30.30;83.10;;;;;;4158081;28;19925;-71
2022/10/12 08:28:49;;;;;;;;;;;30.30;83.20;;;;;;4194279;28;19928;-70
2022/10/12 08:30:53;;;;;;;;;;;30.30;83.30;;;;;;4193995;28;20006;-71
2022/10/12 08:33:00;;;;;;;;;;;30.30;83.20;;;;;;4184365;28;19929;-72
2022/10/12 08:35:10;;;;;;;;;;;30.30;83.20;;;;;;4177841;28;20145;-71
2022/10/12 08:37:15;;;;;;;;;;;30.30;82.90;;;;;;4193064;28;19935;-72
2022/10/12 08:39:23;;;;;;;;;;;30.20;81.20;;;;;;4196855;28;19951;-72
2022/10/12 08:41:40;;;;;;;;;;;30.20;82.00;;;;;;4196600;28;19932;-72
2022/10/12 08:43:55;;;;;;;;;;;30.20;82.70;;;;;;4196841;28;19924;-71
2022/10/12 08:46:03;;;;;;;;;;;30.30;83.20;;;;;;4196908;28;19951;-71
2022/10/12 08:48:19;;;;;;;;;;;30.30;82.90;;;;;;4192897;28;19924;-72
2022/10/12 08:50:26;;;;;;;;;;;30.30;83.60;;;;;;4195262;28;19935;-73
2022/10/12 08:52:51;;;;;;;;;;;30.40;84.00;;;;;;4179278;28;19935;-71
2022/10/12 08:54:56;;;;;;;;;;;30.40;83.30;;;;;;4178630;28;19924;-72
2022/10/12 08:57:01;;;;;;;;;;;30.30;82.80;;;;;;4195174;28;19932;-73
2022/10/12 08:59:11;;;;;;;;;;;30.30;82.70;;;;;;4196645;28;19963;-72
2022/10/12 09:01:31;;;;;;;;;;;30.30;83.10;;;;;;4195182;28;19952;-72
2022/10/12 09:03:34;;;;;;;;;;;30.30;83.60;;;;;;4196743;28;19954;-72
2022/10/12 09:05:49;;;;;;;;;;;30.30;84.20;;;;;;4196170;28;20405;-73
2022/10/12 09:07:55;;;;;;;;;;;30.20;82.80;;;;;;4200045;28;19950;-72
2022/10/12 09:10:12;;;;;;;;;;;30.20;82.70;;;;;;4196436;28;19928;-73
2022/10/12 09:12:27;;;;;;;;;;;30.20;82.20;;;;;;4196615;28;19928;-73
2022/10/12 09:14:32;;;;;;;;;;;30.20;83.10;;;;;;4194303;28;19974;-73
2022/10/12 09:16:38;;;;;;;;;;;30.10;83.40;;;;;;4178682;28;20007;-73
2022/10/12 09:18:46;;;;;;;;;;;30.20;84.10;;;;;;4178980;28;19929;-73
2022/10/12 09:20:51;;;;;;;;;;;30.20;83.90;;;;;;4192626;28;19928;-73
2022/10/12 09:23:00;;;;;;;;;;;30.20;83.90;;;;;;4178643;28;20390;-73
2022/10/12 09:25:11;;;;;;;;;;;30.20;84.20;;;;;;4196061;28;19930;-72
2022/10/12 09:27:15;;;;;;;;;;;30.20;84.20;;;;;;4194134;28;20417;-74
2022/10/12 09:29:26;;;;;;;;;;;30.20;84.00;;;;;;4178557;28;20402;-73
2022/10/12 09:31:34;;;;;;;;;;;30.30;84.10;;;;;;4194867;28;20391;-72
2022/10/12 09:33:58;;;;;;;;;;;30.20;83.90;;;;;;4180869;28;19928;-73
2022/10/12 09:36:02;;;;;;;;;;;30.20;85.40;;;;;;4194191;28;20582;-73
2022/10/12 09:38:08;;;;;;;;;;;30.20;84.30;;;;;;4192744;28;19998;-73
2022/10/12 09:40:20;;;;;;;;;;;30.10;84.30;;;;;;4151316;28;19939;-73
2022/10/12 09:42:24;;;;;;;;;;;30.00;84.90;;;;;;4151055;28;21171;-72
2022/10/12 09:44:33;;;;;;;;;;;30.00;85.20;;;;;;4171976;28;20522;-72
2022/10/12 09:46:39;;;;;;;;;;;29.90;85.40;;;;;;4170271;28;20315;-72
2022/10/12 09:48:56;;;;;;;;;;;29.90;85.30;;;;;;4189691;28;19935;-73
2022/10/12 09:51:05;;;;;;;;;;;29.90;85.10;;;;;;4190928;28;19934;-72
2022/10/12 09:53:18;;;;;;;;;;;29.90;85.40;;;;;;4184101;28;19962;-71
2022/10/12 09:55:25;;;;;;;;;;;29.90;85.30;;;;;;4190812;28;19928;-72
2022/10/12 09:57:32;;;;;;;;;;;29.80;85.10;;;;;;4174379;28;19933;-73
2022/10/12 09:59:42;;;;;;;;;;;29.80;85.70;;;;;;4192507;28;19932;-73
2022/10/12 10:01:57;;;;;;;;;;;29.80;86.10;;;;;;4189527;28;19932;-73
2022/10/12 10:04:07;;;;;;;;;;;29.80;86.20;;;;;;4192203;28;20477;-73
2022/10/12 10:06:14;;;;;;;;;;;29.80;86.50;;;;;;4192039;28;20062;-74
2022/10/12 10:08:22;;;;;;;;;;;29.80;86.40;;;;;;4191850;28;19975;-74
2022/10/12 10:10:30;;;;;;;;;;;29.80;86.80;;;;;;4172034;28;20051;-73
2022/10/12 10:12:47;;;;;;;;;;;29.70;87.40;;;;;;4191905;28;19928;-73
2022/10/12 10:14:55;;;;;;;;;;;29.60;87.00;;;;;;4172012;28;19935;-73
2022/10/12 10:17:15;;;;;;;;;;;29.60;87.10;;;;;;4191277;28;19932;-73
2022/10/12 10:19:19;;;;;;;;;;;29.50;87.20;;;;;;4191818;28;19928;-73
2022/10/12 10:21:34;;;;;;;;;;;29.50;87.70;;;;;;4191437;28;19929;-72
2022/10/12 10:23:50;;;;;;;;;;;29.60;88.00;;;;;;4189234;28;20394;-73
2022/10/12 10:25:56;;;;;;;;;;;29.60;88.00;;;;;;4184528;28;20334;-71
2022/10/12 10:28:12;;;;;;;;;;;29.60;88.40;;;;;;4158836;28;20398;-73
2022/10/12 10:30:21;;;;;;;;;;;29.60;88.10;;;;;;4172402;28;20003;-73
2022/10/12 10:32:37;;;;;;;;;;;29.60;88.10;;;;;;4171639;28;19963;-73
2022/10/12 10:34:42;;;;;;;;;;;29.60;88.80;;;;;;4157349;28;19988;-73
2022/10/12 10:36:55;;;;;;;;;;;29.50;88.60;;;;;;4169298;28;20401;-73
2022/10/12 10:39:03;;;;;;;;;;;29.50;88.90;;;;;;4190384;28;20015;-73
2022/10/12 10:41:13;;;;;;;;;;;29.40;89.30;;;;;;4179569;28;19928;-73
2022/10/12 10:43:24;;;;;;;;;;;29.40;89.90;;;;;;4157706;28;19933;-74
2022/10/12 10:45:29;;;;;;;;;;;29.40;90.00;;;;;;4158965;28;19929;-73
2022/10/12 10:47:40;;;;;;;;;;;29.50;90.20;;;;;;4173977;28;19935;-72
2022/10/12 10:49:49;;;;;;;;;;;29.40;90.30;;;;;;4174973;28;19940;-73
2022/10/12 10:51:56;;;;;;;;;;;29.40;90.50;;;;;;4173423;28;19956;-69
2022/10/12 10:54:12;;;;;;;;;;;29.40;90.50;;;;;;4157933;28;19995;-73
2022/10/12 10:56:28;;;;;;;;;;;29.40;90.60;;;;;;4156120;28;19953;-73
2022/10/12 10:58:33;;;;;;;;;;;29.30;90.40;;;;;;4173343;28;20012;-72
2022/10/12 11:00:39;;;;;;;;;;;29.30;90.50;;;;;;4158067;28;19933;-73
2022/10/12 11:03:03;;;;;;;;;;;29.30;90.40;;;;;;4154884;28;20371;-73
2022/10/12 11:05:23;;;;;;;;;;;29.20;90.60;;;;;;4172752;28;20039;-73
2022/10/12 11:07:29;;;;;;;;;;;29.20;90.50;;;;;;4176929;28;20681;-73
2022/10/12 11:09:40;;;;;;;;;;;29.30;90.80;;;;;;4168715;28;19929;-72
2022/10/12 11:11:45;;;;;;;;;;;29.30;90.90;;;;;;4160942;28;19929;-73
2022/10/12 11:14:01;;;;;;;;;;;29.20;90.90;;;;;;4169452;28;19928;-73
2022/10/12 11:16:14;;;;;;;;;;;29.20;91.10;;;;;;4155927;28;20048;-73
2022/10/12 11:18:48;;;;;;;;;;;29.20;91.30;;;;;;4154890;28;20007;-73
2022/10/12 11:21:01;;;;;;;;;;;29.20;91.20;;;;;;4155830;28;20391;-72
2022/10/12 11:23:15;;;;;;;;;;;29.10;91.40;;;;;;4171261;28;19977;-72
2022/10/12 11:25:19;;;;;;;;;;;29.10;91.40;;;;;;4157463;28;19933;-72
2022/10/12 11:27:25;;;;;;;;;;;29.10;91.50;;;;;;4183750;28;20062;-73
2022/10/12 11:29:33;;;;;;;;;;;29.10;91.50;;;;;;4173018;28;19929;-73
2022/10/12 11:31:38;;;;;;;;;;;29.00;91.40;;;;;;4190540;28;20466;-74
2022/10/12 11:33:43;;;;;;;;;;;28.90;91.60;;;;;;4189662;28;19964;-73
2022/10/12 11:35:51;;;;;;;;;;;29.00;91.70;;;;;;4157351;28;20602;-74
2022/10/12 11:37:57;;;;;;;;;;;29.00;91.80;;;;;;4198367;28;20620;-72
2022/10/12 11:40:02;;;;;;;;;;;29.00;91.90;;;;;;4170836;28;19943;-71
2022/10/12 11:42:11;;;;;;;;;;;29.00;92.00;;;;;;4150477;28;19929;-72
2022/10/12 11:44:30;;;;;;;;;;;29.00;92.30;;;;;;4169374;28;19963;-72
2022/10/12 11:46:35;;;;;;;;;;;29.00;92.70;;;;;;4169838;28;19929;-72
2022/10/12 11:48:43;;;;;;;;;;;29.00;92.80;;;;;;4170551;28;19929;-73
2022/10/12 11:50:48;;;;;;;;;;;29.00;93.10;;;;;;4171633;28;19928;-72
2022/10/12 11:52:52;;;;;;;;;;;29.00;93.50;;;;;;4170998;28;19929;-72
2022/10/12 11:55:03;;;;;;;;;;;28.90;93.60;;;;;;4121727;28;20851;-72
2022/10/12 11:57:09;;;;;;;;;;;28.90;93.80;;;;;;4170123;28;19975;-71
2022/10/12 11:59:16;;;;;;;;;;;28.90;93.90;;;;;;4171325;28;19991;-71
2022/10/12 12:01:33;;;;;;;;;;;28.90;94.00;;;;;;4155395;28;20031;-72
2022/10/12 12:03:43;;;;;;;;;;;28.80;94.00;;;;;;4171168;28;19963;-72
2022/10/12 12:05:46;;;;;;;;;;;28.80;94.20;;;;;;4155321;28;19929;-72
2022/10/12 12:07:53;;;;;;;;;;;28.70;93.80;;;;;;4166201;28;20023;-72
2022/10/12 12:09:57;;;;;;;;;;;28.70;93.80;;;;;;4154521;28;19979;-72
2022/10/12 12:12:15;;;;;;;;;;;28.70;93.70;;;;;;4169534;28;19987;-71
2022/10/12 12:14:20;;;;;;;;;;;28.70;93.80;;;;;;4192360;28;19929;-72
2022/10/12 12:16:31;;;;;;;;;;;28.60;93.90;;;;;;4193592;28;20383;-73
2022/10/12 12:18:54;;;;;;;;;;;28.60;94.00;;;;;;4193476;28;19941;-73
2022/10/12 12:21:07;;;;;;;;;;;28.60;94.00;;;;;;4192695;28;19938;-73